• Join FlightAware (Why Join?)
  • Login
  • US Flag 
11:38AM EDT


 

Airport Tracker/Info


-or-


 

Live Flight TrackerFlight Track Log ✈ DAL268 ✈ 12-Oct-2013 ✈ KSFO - KJFK

Flight Track Log - Related Links

Times and Time Zones

All times are in EDT time to prevent confusion due to time zone crossing. See the DAL268 flight status page for this flight to view local times or setup timezone preferences in your user account.

Time Position Orientation Groundspeed Altitude Reporting Facility
EDT Latitude Longitude Course Direction KTS MPH feet Rate Location/Type
02:32PM 37.6306 -122.3650 24° Northeast 165 190 600  Level FlightAware ADS-B
02:32PM 37.6331 -122.3630 32° Northeast 167 192 700 2,280 Climbing FlightAware ADS-B
02:32PM 37.6382 -122.3570 43° Northeast 173 199 1,100 2,460 Climbing FlightAware ADS-B
02:32PM 37.6400 -122.3540 53° Northeast 176 203 1,200 1,200 Climbing FlightAware ADS-B
02:32PM 37.6437 -122.3480 52° Northeast 186 214 1,300 1,080 Climbing FlightAware ADS-B
02:32PM 37.6461 -122.3450 45° Northeast 192 221 1,400 1,380 Climbing FlightAware ADS-B
02:32PM 37.6538 -122.3330 51° Northeast 208 239 1,700 1,680 Climbing FlightAware ADS-B
02:33PM 37.6640 -122.3190 47° Northeast 225 259 2,200 2,220 Climbing FlightAware ADS-B
02:33PM 37.6761 -122.3010 50° Northeast 237 273 2,900 2,340 Climbing FlightAware ADS-B
02:33PM 37.6876 -122.2840 49° Northeast 251 289 3,500 2,340 Climbing FlightAware ADS-B
02:33PM 37.7009 -122.2640 50° Northeast 259 298 4,200 2,640 Climbing FlightAware ADS-B
02:34PM 37.7159 -122.2420 49° Northeast 267 307 5,100 2,880 Climbing FlightAware ADS-B
02:34PM 37.7235 -122.2300 51° Northeast 271 312 5,600 3,000 Climbing FlightAware ADS-B
02:34PM 37.7320 -122.2070 65° Northeast 275 316 6,400 3,120 Climbing FlightAware ADS-B
02:34PM 37.7346 -122.1980 70° East 277 319 6,700 2,820 Climbing FlightAware ADS-B
02:34PM 37.7416 -122.1740 70° East 281 323 7,400 2,580 Climbing FlightAware ADS-B
02:35PM 37.7492 -122.1500 68° East 287 330 8,100 2,760 Climbing FlightAware ADS-B
02:35PM 37.7574 -122.1240 68° East 291 335 8,900 2,700 Climbing FlightAware ADS-B
02:35PM 37.7657 -122.0960 69° East 298 343 9,600 2,100 Climbing FlightAware ADS-B
02:36PM 37.7812 -122.0450 69° East 322 371 10,600 1,860 Climbing FlightAware ADS-B
02:36PM 37.7973 -121.9890 70° East 345 397 11,500 1,500 Climbing FlightAware ADS-B
02:37PM 37.8165 -121.9210 70° East 376 433 12,200 1,560 Climbing FlightAware ADS-B
02:37PM 37.8353 -121.8550 70° East 394 453 13,200 1,980 Climbing FlightAware ADS-B
02:38PM 37.8542 -121.7880 70° East 403 464 14,300 2,160 Climbing FlightAware ADS-B
02:38PM 37.8734 -121.7200 70° East 411 473 15,400 2,100 Climbing FlightAware ADS-B
02:39PM 37.8930 -121.6510 70° East 423 487 16,400 1,920 Climbing FlightAware ADS-B
02:39PM 37.9135 -121.5790 70° East 430 495 17,400 1,980 Climbing FlightAware ADS-B
02:40PM 37.9343 -121.5050 70° East 437 503 18,500 1,920 Climbing FlightAware ADS-B
02:40PM 37.9556 -121.4300 70° East 444 511 19,400 1,800 Climbing FlightAware ADS-B
02:41PM 37.9854 -121.3240 70° East 454 522 20,700 1,740 Climbing FlightAware ADS-B
02:42PM 38.0220 -121.1930 70° East 463 533 22,200 1,680 Climbing FlightAware
02:43PM 38.0450 -121.1110 70° East 469 540 23,100 1,560 Climbing FlightAware
02:43PM 38.0710 -121.0170 71° East 475 547 24,000 1,800 Climbing FlightAware
02:44PM 38.0930 -120.9310 72° East 469 540 25,300 1,920 Climbing FlightAware
02:44PM 38.1140 -120.8410 73° East 473 544 26,200 1,500 Climbing FlightAware
02:45PM 38.1370 -120.7420 74° East 479 551 27,000 960 Climbing FlightAware
02:45PM 38.1590 -120.6470 74° East 494 568 27,400 960 Climbing FlightAware
02:46PM 38.1760 -120.5430 78° East 498 573 28,200 1,500 Climbing FlightAware
02:47PM 38.1920 -120.4520 77° East 495 570 29,100 1,560 Climbing FlightAware
02:47PM 38.2090 -120.3500 78° East 493 567 30,000 1,200 Climbing FlightAware
02:48PM 38.2280 -120.2460 77° East 500 575 30,600 960 Climbing FlightAware
02:48PM 38.2470 -120.1380 77° East 505 581 31,200 1,020 Climbing FlightAware
02:49PM 38.2517 -120.1129 77° East 504 580 31,400 1,620 Climbing FlightAware ADS-B (KAHC)
02:49PM 38.2780 -119.9620 77° East 494 568 32,900 1,380 Climbing FlightAware
02:50PM 38.2970 -119.8520 78° East 494 568 33,600 1,020 Climbing FlightAware
02:51PM 38.3128 -119.7633 77° East 498 573 34,100 900 Climbing FlightAware ADS-B (KAHC)
02:51PM 38.3290 -119.6700 77° East 499 574 34,600 840 Climbing FlightAware
02:52PM 38.3419 -119.5937 78° East 501 577 35,000 360 Climbing FlightAware ADS-B (KAHC)
02:52PM 38.3584 -119.4964 78° East 506 582 35,000  Level FlightAware ADS-B (KAHC)
02:53PM 38.3819 -119.3577 78° East 508 585 35,000  Level FlightAware ADS-B (KAHC)
02:53PM 38.3967 -119.2692 78° East 510 587 35,000  Level FlightAware ADS-B (KAHC)
02:54PM 38.4175 -119.1443 78° East 510 587 35,000  Level FlightAware ADS-B (KAHC)
02:55PM 38.4318 -119.0576 78° East 511 588 35,000  Level FlightAware ADS-B (KAHC)
02:55PM 38.4458 -118.9712 78° East 511 588 35,000  Level FlightAware ADS-B (KAHC)
02:56PM 38.4770 -118.7800 78° East 510 587 35,000  Level FlightAware
02:57PM 38.4930 -118.6730 79° East 511 588 35,000  Level FlightAware
02:58PM 38.5120 -118.5570 78° East 510 587 35,000  Level FlightAware
02:58PM 38.5290 -118.4470 79° East 510 587 35,000  Level FlightAware
02:59PM 38.5430 -118.3580 79° East 509 586 35,000  Level FlightAware
02:59PM 38.5600 -118.2520 78° East 508 585 35,000  Level FlightAware
03:00PM 38.5750 -118.1540 79° East 508 585 35,000  Level FlightAware
03:00PM 38.5900 -118.0550 79° East 509 586 35,000  Level FlightAware
03:01PM 38.6070 -117.9550 78° East 509 586 35,000  Level FlightAware
03:02PM 38.6210 -117.8700 78° East 509 586 35,000  Level FlightAware
03:02PM 38.6360 -117.7800 78° East 509 586 35,000  Level FlightAware
03:03PM 38.6510 -117.6900 78° East 509 586 35,000  Level FlightAware
03:03PM 38.6660 -117.5990 78° East 509 586 35,000  Level FlightAware
03:04PM 38.6810 -117.5070 78° East 509 586 35,000  Level FlightAware
03:05PM 38.6960 -117.4160 78° East 509 586 35,000  Level FlightAware
03:05PM 38.7120 -117.3230 78° East 509 586 35,000  Level FlightAware
03:06PM 38.7270 -117.2330 78° East 509 586 35,000  Level FlightAware
03:06PM 38.7420 -117.1400 78° East 509 586 35,000  Level FlightAware
03:07PM 38.7570 -117.0500 78° East 509 586 35,000  Level FlightAware
03:08PM 38.7710 -116.9640 78° East 509 586 35,000  Level FlightAware
03:08PM 38.7860 -116.8710 78° East 509 586 35,000  Level FlightAware
03:09PM 38.8020 -116.7790 77° East 509 586 35,000  Level FlightAware
03:09PM 38.8160 -116.6930 78° East 509 586 35,000  Level FlightAware
03:10PM 38.8310 -116.6000 78° East 509 586 35,000  Level FlightAware
03:11PM 38.8603 -116.1853 78° East 516 594 35,000  Level Salt Lake Center
03:12PM 38.8853 -116.0025 80° East 518 596 35,000  Level Salt Lake Center
03:13PM 38.9097 -115.8211 80° East 516 594 35,000  Level Salt Lake Center
03:14PM 38.9339 -115.6394 80° East 516 594 35,000  Level Salt Lake Center
03:15PM 38.9578 -115.4578 80° East 517 595 35,000  Level Salt Lake Center
03:16PM 38.9842 -115.2586 80° East 517 595 35,000  Level Salt Lake Center
03:17PM 39.0075 -115.0753 81° East 519 597 35,000  Level Salt Lake Center
03:18PM 39.0306 -114.8936 81° East 517 595 35,000  Level Salt Lake Center
03:24PM 39.1610 -113.7997 81° East 522 601 35,000  Level FlightAware ADS-B (KPVU)
03:25PM 39.1825 -113.6108 82° East 521 600 35,000  Level FlightAware ADS-B (KPVU)
03:26PM 39.1960 -113.4910 82° East 521 600 35,000  Level FlightAware
03:26PM 39.2082 -113.3817 82° East 520 598 35,000  Level FlightAware ADS-B (KPVU)
03:27PM 39.2222 -113.2556 82° East 521 600 35,000  Level FlightAware ADS-B (KPVU)
03:27PM 39.2300 -113.2110 77° East 521 600 35,000  Level FlightAware
03:28PM 39.2420 -113.1160 81° East 521 600 35,000  Level FlightAware
03:29PM 39.2586 -112.9200 84° East 518 596 35,000  Level FlightAware ADS-B
03:29PM 39.2643 -112.8665 82° East 518 596 35,000  Level FlightAware ADS-B (KPVU)
03:29PM 39.2689 -112.8230 82° East 518 596 35,000  Level FlightAware ADS-B
03:30PM 39.2771 -112.7461 82° East 517 595 35,000  Level FlightAware ADS-B (KPVU)
03:30PM 39.2787 -112.7310 82° East 517 595 35,000  Level FlightAware ADS-B
03:30PM 39.2874 -112.6482 82° East 516 594 35,000  Level FlightAware ADS-B (KPVU)
03:30PM 39.2899 -112.6240 82° East 516 594 35,000  Level FlightAware ADS-B
03:31PM 39.2960 -112.5680 82° East 515 593 35,000  Level FlightAware ADS-B
03:31PM 39.3054 -112.5180 76° East 516 594 35,000  Level FlightAware ADS-B
03:31PM 39.3104 -112.4980 72° East 515 593 35,000  Level FlightAware ADS-B (KPVU)
03:31PM 39.3314 -112.4310 68° East 517 595 35,000  Level FlightAware ADS-B
03:31PM 39.3391 -112.4081 67° East 517 595 35,000  Level FlightAware ADS-B (KPVU)
03:32PM 39.3609 -112.3460 66° East 517 595 35,000  Level FlightAware ADS-B
03:32PM 39.3833 -112.2838 65° Northeast 518 596 35,000  Level FlightAware ADS-B (KPVU)
03:32PM 39.3912 -112.2620 65° Northeast 518 596 35,000  Level FlightAware ADS-B
03:33PM 39.4153 -112.1963 65° Northeast 519 597 35,000  Level FlightAware ADS-B (KPVU)
03:33PM 39.4224 -112.1770 65° Northeast 519 597 35,000  Level FlightAware ADS-B
03:33PM 39.4462 -112.1123 65° Northeast 520 598 35,000  Level FlightAware ADS-B (KPVU)
03:33PM 39.4556 -112.0870 64° Northeast 520 598 35,000  Level FlightAware ADS-B
03:34PM 39.4871 -112.0010 65° Northeast 521 600 35,000  Level FlightAware ADS-B
03:34PM 39.5184 -111.9160 64° Northeast 522 601 35,000  Level FlightAware ADS-B
03:35PM 39.5342 -111.8726 65° Northeast 523 602 35,000  Level FlightAware ADS-B (KPVU)
03:35PM 39.5502 -111.8280 65° Northeast 524 603 35,000  Level FlightAware ADS-B
03:36PM 39.5876 -111.7260 65° Northeast 526 605 35,000  Level FlightAware ADS-B
03:36PM 39.5864 -111.7287 241° Southwest 527 606 35,000  Level FlightAware ADS-B (KPVU)
03:36PM 39.6187 -111.6400 65° Northeast 528 608 35,000  Level FlightAware ADS-B
03:36PM 39.6321 -111.6022 65° Northeast 530 610 35,000  Level FlightAware ADS-B (KPVU)
03:37PM 39.6501 -111.5520 65° Northeast 532 612 35,000  Level FlightAware ADS-B
03:37PM 39.6833 -111.4600 65° Northeast 532 612 35,000  Level FlightAware ADS-B
03:37PM 39.6930 -111.4324 66° East 533 613 35,000  Level FlightAware ADS-B (KPVU)
03:38PM 39.7147 -111.3710 65° Northeast 534 615 35,000  Level FlightAware ADS-B
03:38PM 39.7358 -111.3121 65° Northeast 535 616 35,000  Level FlightAware ADS-B (KPVU)
03:38PM 39.7462 -111.2830 65° Northeast 536 617 35,000  Level FlightAware ADS-B
03:38PM 39.7698 -111.2164 65° Northeast 537 618 35,000  Level FlightAware ADS-B (KPVU)
03:39PM 39.7775 -111.1940 66° East 537 618 35,000  Level FlightAware ADS-B
03:39PM 39.8091 -111.1050 65° Northeast 539 620 35,000  Level FlightAware ADS-B
03:39PM 39.8250 -111.0604 65° Northeast 540 621 35,000  Level FlightAware ADS-B (KPVU)
03:40PM 39.8438 -111.0070 65° Northeast 541 623 35,000  Level FlightAware ADS-B
03:40PM 39.8753 -110.9180 65° Northeast 542 624 35,000  Level FlightAware ADS-B
03:41PM 39.8700 -110.9390 252° West 531 611 35,000  Level FlightAware
03:41PM 39.9020 -110.8480 65° Northeast 531 611 35,000  Level FlightAware
03:42PM 39.9740 -110.6350 66° East 542 624 35,000  Level FlightAware
03:42PM 39.9855 -110.6020 66° East 542 624 35,000  Level FlightAware ADS-B (KMTJ)
03:42PM 40.0167 -110.5116 66° East 542 624 35,000  Level FlightAware ADS-B (KMTJ)
03:43PM 40.0566 -110.3963 66° East 542 624 35,000  Level FlightAware ADS-B (KMTJ)
03:44PM 40.0967 -110.2797 66° East 541 623 35,000  Level FlightAware ADS-B (KMTJ)
03:44PM 40.1372 -110.1602 66° East 541 623 35,000  Level FlightAware ADS-B (KMTJ)
03:45PM 40.1725 -110.0466 68° East 540 621 35,000  Level FlightAware ADS-B (KMTJ)
03:46PM 40.2030 -109.9410 69° East 539 620 35,000  Level FlightAware
03:46PM 40.2330 -109.8410 69° East 538 619 35,000  Level FlightAware
03:47PM 40.2660 -109.7250 70° East 537 618 35,000  Level FlightAware
03:47PM 40.2950 -109.6260 69° East 536 617 35,000  Level FlightAware
03:48PM 40.3260 -109.5200 69° East 535 616 35,000  Level FlightAware
03:49PM 40.3570 -109.4110 70° East 533 613 35,000  Level FlightAware
03:49PM 40.3880 -109.3020 69° East 533 613 35,000  Level FlightAware
03:49PM 40.3894 -109.2964 72° East 534 615 35,000  Level FlightAware ADS-B (KMTJ)
03:50PM 40.4453 -109.0989 70° East 531 611 35,000  Level FlightAware ADS-B (KMTJ)
03:51PM 40.4730 -109.0000 70° East 531 611 35,000  Level FlightAware
03:51PM 40.4840 -108.9619 69° East 532 612 35,000  Level FlightAware ADS-B (KMTJ)
03:52PM 40.5350 -108.7810 70° East 533 613 35,000  Level FlightAware
03:52PM 40.5535 -108.7135 70° East 534 615 35,000  Level FlightAware ADS-B (KMTJ)
03:53PM 40.5789 -108.6219 70° East 536 617 35,000  Level FlightAware ADS-B (KMTJ)
03:54PM 40.6270 -108.4470 70° East 538 619 35,000  Level FlightAware
03:54PM 40.6401 -108.4002 70° East 538 619 35,000  Level FlightAware ADS-B (KMTJ)
03:55PM 40.6830 -108.2430 70° East 539 620 35,000  Level FlightAware
03:56PM 40.7150 -108.1260 70° East 540 621 35,000  Level FlightAware
03:56PM 40.7430 -108.0250 70° East 541 623 35,000  Level FlightAware
03:57PM 40.7730 -107.9130 70° East 541 623 35,000  Level FlightAware
03:57PM 40.8040 -107.7970 71° East 542 624 35,000  Level FlightAware
03:58PM 40.8300 -107.7000 70° East 543 625 35,000  Level FlightAware
03:58PM 40.8610 -107.5850 70° East 543 625 35,000  Level FlightAware
03:59PM 40.8910 -107.4720 71° East 544 626 35,000  Level FlightAware
04:00PM 40.9210 -107.3600 70° East 543 625 35,000  Level FlightAware
04:00PM 40.9470 -107.2650 70° East 543 625 35,000  Level FlightAware
04:01PM 40.9740 -107.1660 70° East 543 625 35,000  Level FlightAware
04:02PM 41.0160 -106.9950 72° East 542 624 35,000  Level FlightAware
04:02PM 41.0450 -106.8820 71° East 542 624 35,000  Level FlightAware
04:03PM 41.0730 -106.7750 71° East 542 624 35,000  Level FlightAware
04:03PM 41.1020 -106.6610 71° East 544 626 35,000  Level FlightAware
04:04PM 41.1290 -106.5550 71° East 538 619 35,000  Level FlightAware
04:05PM 41.1570 -106.4450 71° East 536 617 35,000  Level FlightAware
04:05PM 41.1840 -106.3370 72° East 537 618 35,000  Level FlightAware
04:06PM 41.2130 -106.2220 71° East 536 617 35,000  Level FlightAware
04:06PM 41.2380 -106.1230 71° East 537 618 35,000  Level FlightAware
04:07PM 41.2670 -106.0060 72° East 536 617 35,000  Level FlightAware
04:07PM 41.2907 -105.9111 72° East 536 617 35,000  Level FlightAware ADS-B (KEIK)
04:08PM 41.3210 -105.7870 72° East 535 616 35,000  Level FlightAware
04:09PM 41.3510 -105.6680 71° East 535 616 35,000  Level FlightAware
04:09PM 41.3780 -105.5650 71° East 533 613 35,000  Level FlightAware
04:10PM 41.4050 -105.4590 71° East 534 615 35,000  Level FlightAware
04:10PM 41.4330 -105.3530 71° East 535 616 35,000  Level FlightAware
04:11PM 41.4608 -105.2447 71° East 534 615 35,000  Level FlightAware ADS-B (KEIK)
04:12PM 41.4868 -105.1425 71° East 533 613 35,000  Level FlightAware ADS-B (KEIK)
04:12PM 41.5120 -105.0450 71° East 533 613 35,000  Level FlightAware
04:13PM 41.5450 -104.9110 72° East 533 613 35,000  Level FlightAware
04:13PM 41.5720 -104.8030 71° East 532 612 35,000  Level FlightAware
04:14PM 41.6000 -104.6930 71° East 532 612 35,000  Level FlightAware
04:14PM 41.6250 -104.5920 72° East 531 611 35,000  Level FlightAware
04:15PM 41.6540 -104.4760 71° East 530 610 35,000  Level FlightAware
04:16PM 41.6760 -104.3880 71° East 530 610 35,000 780 Level FlightAware
04:16PM 41.7060 -104.2620 72° East 530 610 35,900 1,320 Climbing FlightAware
04:17PM 41.7330 -104.1530 72° East 529 609 36,600 900 Climbing FlightAware
04:17PM 41.7590 -104.0460 72° East 530 610 37,000 300 Climbing FlightAware
04:18PM 41.7860 -103.9350 72° East 530 610 37,000  Level FlightAware
04:19PM 41.8240 -103.7780 72° East 529 609 37,000  Level FlightAware
04:19PM 41.8490 -103.6730 72° East 530 610 37,000  Level FlightAware
04:20PM 41.8790 -103.5430 73° East 530 610 37,000  Level FlightAware
04:21PM 41.9000 -103.4370 75° East 528 608 37,000  Level FlightAware
04:22PM 41.9250 -103.2740 78° East 529 609 37,000  Level FlightAware
04:22PM 41.9410 -103.1750 78° East 529 609 37,000  Level FlightAware
04:23PM 41.9580 -103.0230 81° East 529 609 37,000  Level FlightAware
04:23PM 41.9700 -102.9360 79° East 529 609 37,000  Level FlightAware
04:24PM 41.9860 -102.8270 79° East 529 609 37,000  Level FlightAware
04:25PM 42.0000 -102.7280 79° East 529 609 37,000  Level FlightAware
04:25PM 42.0150 -102.6290 78° East 529 609 37,000  Level FlightAware
04:26PM 42.0290 -102.5300 79° East 529 609 37,000  Level FlightAware
04:26PM 42.0430 -102.4310 79° East 529 609 37,000  Level FlightAware
04:27PM 42.0580 -102.3290 79° East 529 609 37,000  Level FlightAware
04:28PM 42.0730 -102.2270 79° East 529 609 37,000  Level FlightAware
04:28PM 42.0870 -102.1280 79° East 529 609 37,000  Level FlightAware
04:29PM 42.1010 -102.0290 79° East 529 609 37,000  Level FlightAware
04:29PM 42.1150 -101.9300 79° East 529 609 37,000  Level FlightAware
04:30PM 42.1300 -101.8310 78° East 529 609 37,000  Level FlightAware
04:31PM 42.1440 -101.7320 79° East 529 609 37,000  Level FlightAware
04:31PM 42.1580 -101.6330 79° East 529 609 37,000  Level FlightAware
04:32PM 42.1730 -101.5310 79° East 529 609 37,000  Level FlightAware
04:32PM 42.1870 -101.4310 79° East 529 609 37,000  Level FlightAware
04:33PM 42.2010 -101.3320 79° East 529 609 37,000  Level FlightAware
04:34PM 42.2386 -100.8317 79° East 531 611 37,000  Level Minneapolis Center
04:40PM 42.3712 -99.6527 79° East 533 613 37,000  Level FlightAware ADS-B
04:41PM 42.3944 -99.4344 82° East 533 613 37,000  Level FlightAware ADS-B
04:42PM 42.4046 -99.3376 82° East 533 613 37,000  Level FlightAware ADS-B
04:44PM 42.4446 -98.9471 82° East 533 613 37,000  Level FlightAware ADS-B
04:44PM 42.4578 -98.8761 76° East 529 609 37,000  Level FlightAware ADS-B
04:44PM 42.4720 -98.8336 66° East 524 603 37,000  Level FlightAware ADS-B
04:44PM 42.4904 -98.7944 58° Northeast 518 596 37,000  Level FlightAware ADS-B
04:45PM 42.4995 -98.7788 52° Northeast 514 592 37,000  Level FlightAware ADS-B
04:45PM 42.5069 -98.7672 49° Northeast 512 589 37,000  Level FlightAware ADS-B
04:47PM 42.7307 -98.4599 45° Northeast 506 582 37,000  Level FlightAware ADS-B
04:49PM 42.8992 -98.2284 45° Northeast 500 575 37,000  Level FlightAware ADS-B
04:49PM 42.9539 -98.1532 45° Northeast 499 574 37,000  Level FlightAware ADS-B
04:51PM 43.0909 -97.9642 45° Northeast 503 579 37,000  Level FlightAware ADS-B
04:51PM 43.1097 -97.9329 51° Northeast 509 586 37,000  Level FlightAware ADS-B
04:51PM 43.1249 -97.9004 57° Northeast 515 593 37,000  Level FlightAware ADS-B
04:53PM 43.1516 -97.5994 83° East 541 623 37,000  Level FlightAware ADS-B
04:53PM 43.1310 -97.4610 101° East 540 621 37,000  Level FlightAware
04:54PM 43.1130 -97.3380 101° East 540 621 37,000  Level FlightAware
04:54PM 43.0970 -97.2310 102° East 540 621 37,000  Level FlightAware
04:55PM 43.0864 -97.1651 102° East 539 620 37,000  Level FlightAware ADS-B
04:55PM 43.0827 -97.1414 102° East 539 620 37,000  Level FlightAware ADS-B
04:56PM 43.0380 -96.8540 102° East 538 619 37,000  Level FlightAware
04:56PM 43.0559 -96.9665 282° West 539 620 37,000  Level FlightAware ADS-B
04:57PM 43.0160 -96.7080 102° East 539 620 37,000  Level FlightAware
04:57PM 43.0000 -96.6050 102° East 540 621 37,000  Level FlightAware
04:58PM 42.9810 -96.4860 102° East 542 624 37,000  Level FlightAware
04:59PM 42.9620 -96.3640 102° East 543 625 37,000  Level FlightAware
04:59PM 42.9420 -96.2400 102° East 546 628 37,000  Level FlightAware
05:00PM 42.9284 -96.1564 102° East 549 632 37,000  Level FlightAware ADS-B
05:00PM 42.9232 -96.1240 102° East 549 632 37,000  Level FlightAware ADS-B
05:01PM 42.8870 -95.8990 102° East 552 635 37,000  Level FlightAware
05:02PM 42.8670 -95.7790 103° East 553 636 37,000  Level FlightAware
05:02PM 42.8460 -95.6520 103° East 552 635 37,000  Level FlightAware
05:03PM 42.8250 -95.5270 103° East 550 633 37,000  Level FlightAware
05:03PM 42.8070 -95.4200 103° East 549 632 37,000  Level FlightAware
05:04PM 42.7860 -95.2970 103° East 547 629 37,000  Level FlightAware
05:05PM 42.7670 -95.1870 103° East 545 627 37,000  Level FlightAware
05:05PM 42.7470 -95.0660 103° East 541 623 37,000  Level FlightAware
05:06PM 42.7250 -94.9430 104° East 537 618 37,000  Level FlightAware
05:06PM 42.7070 -94.8360 103° East 534 615 37,000  Level FlightAware
05:07PM 42.6890 -94.7340 103° East 531 611 37,000  Level FlightAware
05:07PM 42.6680 -94.6140 103° East 528 608 37,000  Level FlightAware
05:08PM 42.6592 -94.5646 104° East 528 608 37,000  Level FlightAware ADS-B (KMCW)
05:09PM 42.6270 -94.3840 104° East 524 603 37,000  Level FlightAware
05:09PM 42.6232 -94.3605 102° East 525 604 37,000  Level FlightAware ADS-B (KMCW)
05:09PM 42.6135 -94.2674 98° East 524 603 37,000  Level FlightAware ADS-B (KMCW)
05:10PM 42.6120 -94.2141 92° East 522 601 37,000  Level FlightAware ADS-B (KMCW)
05:10PM 42.6130 -94.0460 89° East 521 600 37,000  Level FlightAware
05:11PM 42.6131 -93.9960 90° East 521 600 37,000  Level FlightAware ADS-B (KMCW)
05:11PM 42.6138 -93.9247 89° East 523 602 37,000  Level FlightAware ADS-B (KMCW)
05:12PM 42.6150 -93.7240 89° East 524 603 37,000  Level FlightAware
05:13PM 42.6160 -93.5970 89° East 527 606 37,000  Level FlightAware
05:13PM 42.6160 -93.4910 90° East 529 609 37,000  Level FlightAware
05:14PM 42.6166 -93.4284 89° East 529 609 37,000  Level FlightAware ADS-B (KMCW)
05:14PM 42.6170 -93.2670 90° East 532 612 37,000  Level FlightAware
05:15PM 42.6170 -93.1580 90° East 534 615 37,000  Level FlightAware
05:15PM 42.6167 -93.1240 91° East 534 615 37,000  Level FlightAware ADS-B (KMCW)
05:16PM 42.6170 -93.0130 90° East 534 615 37,000  Level FlightAware
05:16PM 42.6160 -92.8980 91° East 530 610 37,000  Level FlightAware
05:17PM 42.6160 -92.7850 90° East 524 603 37,000 600 Level FlightAware
05:17PM 42.6150 -92.6700 91° East 520 598 37,700 1,020 Climbing FlightAware
05:18PM 42.6151 -92.5784 90° East 523 602 38,100 600 Climbing FlightAware ADS-B (KMCW)
05:18PM 42.6150 -92.4580 90° East 522 601 38,400 600 Climbing FlightAware
05:19PM 42.6140 -92.3360 91° East 523 602 38,900 480 Climbing FlightAware
05:20PM 42.6130 -92.2190 91° East 523 602 39,000 60 Climbing FlightAware
05:20PM 42.6120 -92.1280 91° East 525 604 39,000  Level FlightAware ADS-B (KMCW)
05:21PM 42.6111 -92.0299 91° East 528 608 39,000  Level FlightAware ADS-B (KMCW)
05:21PM 42.6090 -91.8740 91° East 534 615 39,000  Level FlightAware
05:22PM 42.6082 -91.7774 91° East 535 616 39,000  Level FlightAware ADS-B (KMCW)
05:22PM 42.6067 -91.6566 91° East 534 615 39,000  Level FlightAware ADS-B (KMCW)
05:23PM 42.6053 -91.5512 91° East 532 612 39,000  Level FlightAware ADS-B (KMCW)
05:23PM 42.6038 -91.4466 91° East 533 613 39,000  Level FlightAware ADS-B (KMCW)
05:24PM 42.6017 -91.3136 91° East 532 612 39,000  Level FlightAware ADS-B (KMCW)
05:25PM 42.6004 -91.2350 91° East 532 612 39,000  Level FlightAware ADS-B (KMCW)
05:25PM 42.5983 -91.1136 91° East 531 611 39,000  Level FlightAware ADS-B (KMCW)
05:26PM 42.5964 -91.0099 91° East 531 611 39,000  Level FlightAware ADS-B (KMCW)
05:26PM 42.5938 -90.8742 91° East 531 611 39,000  Level FlightAware ADS-B (KMCW)
05:27PM 42.5910 -90.7392 92° East 529 609 39,000  Level FlightAware ADS-B (KMCW)
05:28PM 42.5870 -90.5800 92° East 525 604 39,000  Level FlightAware
05:28PM 42.5850 -90.4650 91° East 522 601 39,000  Level FlightAware
05:29PM 42.5820 -90.3400 92° East 518 596 39,000  Level FlightAware
05:30PM 42.5790 -90.2260 92° East 517 595 39,000  Level FlightAware
05:30PM 42.5760 -90.1130 92° East 516 594 39,000  Level FlightAware
05:31PM 42.5730 -89.9970 92° East 513 590 39,000  Level FlightAware
05:31PM 42.5700 -89.8920 92° East 511 588 39,000  Level FlightAware
05:32PM 42.5670 -89.7830 92° East 508 585 39,000  Level FlightAware
05:33PM 42.5630 -89.6660 93° East 505 581 39,000  Level FlightAware
05:33PM 42.5600 -89.5630 92° East 504 580 39,000  Level FlightAware
05:34PM 42.5560 -89.4460 93° East 504 580 39,000  Level FlightAware
05:34PM 42.5520 -89.3330 93° East 503 579 39,000  Level FlightAware
05:35PM 42.5490 -89.2290 92° East 503 579 39,000  Level FlightAware
05:35PM 42.5450 -89.1260 93° East 503 579 39,000  Level FlightAware
05:36PM 42.5410 -89.0000 92° East 502 578 39,000  Level FlightAware
05:37PM 42.5370 -88.9040 93° East 502 578 39,000  Level FlightAware
05:37PM 42.5330 -88.7930 93° East 502 578 39,000  Level FlightAware
05:38PM 42.5280 -88.6720 93° East 502 578 39,000  Level FlightAware
05:38PM 42.5240 -88.5560 93° East 502 578 39,000  Level FlightAware
05:39PM 42.5200 -88.4610 93° East 502 578 39,000  Level FlightAware
05:40PM 42.5150 -88.3460 93° East 502 578 39,000  Level FlightAware
05:40PM 42.5110 -88.2430 93° East 503 579 39,000  Level FlightAware
05:41PM 42.5060 -88.1370 94° East 503 579 39,000  Level FlightAware
05:41PM 42.5010 -88.0190 93° East 505 581 39,000  Level FlightAware
05:42PM 42.5000 -87.9090 91° East 508 585 39,000  Level FlightAware
05:42PM 42.5000 -87.8080 90° East 507 583 39,000  Level FlightAware
05:43PM 42.5000 -87.6900 90° East 507 583 39,000  Level FlightAware
05:44PM 42.4990 -87.5680 91° East 506 582 39,000  Level FlightAware
05:44PM 42.4990 -87.4640 90° East 507 583 39,000  Level FlightAware
05:45PM 42.4980 -87.3530 91° East 506 582 39,000  Level FlightAware
05:45PM 42.4980 -87.2390 90° East 506 582 39,000  Level FlightAware
05:46PM 42.4970 -87.1320 91° East 506 582 39,000  Level FlightAware
05:47PM 42.4960 -87.0250 91° East 505 581 39,000  Level FlightAware
05:47PM 42.4950 -86.9140 91° East 503 579 39,000  Level FlightAware
05:48PM 42.4940 -86.8140 91° East 504 580 39,000  Level FlightAware
05:48PM 42.4930 -86.6860 91° East 504 580 39,000  Level FlightAware
05:49PM 42.4920 -86.5810 91° East 505 581 39,000  Level FlightAware
05:49PM 42.4900 -86.4740 91° East 503 579 39,000  Level FlightAware
05:50PM 42.4890 -86.3720 91° East 502 578 39,000  Level FlightAware
05:51PM 42.4870 -86.2480 91° East 500 575 39,000  Level FlightAware
05:51PM 42.4850 -86.1310 91° East 497 572 39,000  Level FlightAware
05:52PM 42.4840 -86.0330 91° East 489 563 39,000  Level FlightAware
05:52PM 42.4820 -85.9290 91° East 482 555 39,000  Level FlightAware
05:53PM 42.4800 -85.8300 92° East 481 554 39,000  Level FlightAware
05:54PM 42.4780 -85.7180 91° East 481 554 39,000  Level FlightAware
05:54PM 42.4760 -85.6170 92° East 482 555 39,000  Level FlightAware
05:55PM 42.4740 -85.5100 91° East 482 555 39,000  Level FlightAware
05:55PM 42.4710 -85.3990 92° East 482 555 39,000  Level FlightAware
05:56PM 42.4690 -85.3070 92° East 481 554 39,000  Level FlightAware
05:56PM 42.4660 -85.1940 92° East 479 551 39,000  Level FlightAware
05:57PM 42.4640 -85.0940 92° East 480 552 39,000  Level FlightAware
05:58PM 42.4610 -84.9840 92° East 482 555 39,000  Level FlightAware
05:58PM 42.4590 -84.8840 92° East 484 557 39,000  Level FlightAware
05:59PM 42.4560 -84.7810 92° East 485 558 39,000  Level FlightAware
05:59PM 42.4520 -84.6590 93° East 485 558 39,000  Level FlightAware
06:00PM 42.4490 -84.5500 92° East 482 555 39,000  Level FlightAware
06:00PM 42.4470 -84.4670 92° East 478 550 39,000  Level FlightAware
06:01PM 42.4430 -84.3440 92° East 475 547 39,000  Level FlightAware
06:02PM 42.4390 -84.2210 92° East 472 543 39,000  Level FlightAware
06:02PM 42.4360 -84.1310 93° East 469 540 39,000  Level FlightAware
06:03PM 42.4320 -84.0240 93° East 466 536 39,000  Level FlightAware
06:04PM 42.4290 -83.9310 92° East 463 533 39,000  Level FlightAware
06:04PM 42.4250 -83.8140 93° East 461 531 39,000  Level FlightAware
06:05PM 42.4210 -83.7210 93° East 461 531 39,000  Level FlightAware
06:05PM 42.4170 -83.6180 93° East 461 531 39,000  Level FlightAware
06:06PM 42.4130 -83.5140 93° East 463 533 39,000  Level FlightAware
06:07PM 42.4090 -83.4090 93° East 463 533 39,000  Level FlightAware
06:07PM 42.4050 -83.3100 93° East 464 534 39,000  Level FlightAware
06:08PM 42.4020 -83.2190 93° East 466 536 39,000  Level FlightAware
06:08PM 42.3970 -83.1060 93° East 468 539 39,000  Level FlightAware
06:09PM 42.3920 -83.0030 94° East 470 541 39,000  Level FlightAware
06:09PM 42.3880 -82.8970 93° East 471 542 39,000  Level FlightAware
06:10PM 42.3840 -82.8050 93° East 472 543 39,000  Level FlightAware
06:11PM 42.3790 -82.7100 94° East 472 543 39,000  Level FlightAware
06:11PM 42.3740 -82.5840 93° East 471 542 39,000  Level FlightAware
06:12PM 42.3700 -82.4710 93° East 471 542 39,000  Level FlightAware
06:12PM 42.3670 -82.3820 93° East 473 544 39,000  Level FlightAware
06:13PM 42.3620 -82.2670 93° East 475 547 39,000  Level FlightAware
06:14PM 42.3580 -82.1620 93° East 477 549 39,000  Level FlightAware
06:14PM 42.3530 -82.0630 94° East 478 550 39,000  Level FlightAware
06:15PM 42.3480 -81.9530 93° East 479 551 39,000  Level FlightAware
06:15PM 42.3440 -81.8480 93° East 478 550 39,000  Level FlightAware
06:16PM 42.3390 -81.7350 93° East 477 549 39,000  Level FlightAware
06:17PM 42.3340 -81.6460 94° East 472 543 39,000  Level FlightAware
06:17PM 42.3290 -81.5400 94° East 469 540 39,000  Level FlightAware
06:18PM 42.3240 -81.4330 94° East 470 541 39,000  Level FlightAware
06:18PM 42.3200 -81.3400 93° East 470 541 39,000  Level FlightAware
06:19PM 42.3150 -81.2400 94° East 470 541 39,000  Level FlightAware
06:19PM 42.3090 -81.1240 94° East 470 541 39,000  Level FlightAware
06:20PM 42.3050 -81.0390 94° East 471 542 39,000  Level FlightAware
06:21PM 42.2990 -80.9300 94° East 471 542 39,000  Level FlightAware
06:21PM 42.2940 -80.8340 94° East 472 543 39,000  Level FlightAware
06:22PM 42.2880 -80.7200 94° East 474 545 39,000  Level FlightAware
06:22PM 42.2830 -80.6320 94° East 474 545 39,000  Level FlightAware
06:23PM 42.2750 -80.4960 94° East 474 545 39,000  Level FlightAware
06:24PM 42.2690 -80.3940 95° East 472 543 39,000  Level FlightAware
06:24PM 42.2630 -80.2930 95° East 470 541 39,000  Level FlightAware
06:25PM 42.2570 -80.1930 95° East 468 539 39,000  Level FlightAware
06:25PM 42.2510 -80.0860 94° East 467 537 39,000  Level FlightAware
06:26PM 42.2450 -79.9880 95° East 467 537 39,000  Level FlightAware
06:27PM 42.2390 -79.8870 95° East 466 536 39,000  Level FlightAware
06:27PM 42.2320 -79.7780 95° East 465 535 39,000  Level FlightAware
06:28PM 42.2270 -79.6910 94° East 464 534 39,000  Level FlightAware
06:28PM 42.2190 -79.5770 95° East 463 533 39,000  Level FlightAware
06:29PM 42.2130 -79.4800 95° East 462 532 39,000  Level FlightAware
06:29PM 42.2080 -79.4000 95° East 461 531 39,000  Level FlightAware
06:30PM 42.2010 -79.3060 96° East 459 528 39,000  Level FlightAware
06:31PM 42.1900 -79.2060 98° East 458 527 39,000  Level FlightAware
06:31PM 42.1700 -79.1120 106° East 460 529 39,000  Level FlightAware
06:32PM 42.1450 -79.0060 108° East 459 528 39,000  Level FlightAware
06:32PM 42.1220 -78.9110 108° East 459 528 39,000  Level FlightAware
06:33PM 42.1000 -78.8180 108° East 458 527 39,000  Level FlightAware
06:33PM 42.0760 -78.7190 108° East 457 526 39,000  Level FlightAware
06:34PM 42.0530 -78.6290 109° East 458 527 39,000  Level FlightAware
06:35PM 42.0310 -78.5360 108° East 458 527 39,000  Level FlightAware
06:35PM 42.0070 -78.4390 108° East 458 527 39,000  Level FlightAware
06:36PM 41.9880 -78.3620 108° East 459 528 39,000  Level FlightAware
06:36PM 41.9650 -78.2700 109° East 460 529 39,000  Level FlightAware
06:37PM 41.9380 -78.1650 109° East 462 532 39,000  Level FlightAware
06:38PM 41.9130 -78.0650 109° East 463 533 39,000  Level FlightAware
06:38PM 41.8890 -77.9680 108° East 463 533 39,000  Level FlightAware
06:39PM 41.8620 -77.8620 109° East 463 533 39,000  Level FlightAware
06:39PM 41.8400 -77.7740 109° East 463 533 39,000  Level FlightAware
06:40PM 41.8150 -77.6800 110° East 465 535 39,000  Level FlightAware
06:40PM 41.7900 -77.5800 109° East 465 535 39,000  Level FlightAware
06:41PM 41.7650 -77.4820 109° East 465 535 39,000  Level FlightAware
06:42PM 41.7420 -77.3960 110° East 464 534 39,000  Level FlightAware
06:42PM 41.7170 -77.2980 109° East 464 534 39,000  Level FlightAware
06:43PM 41.6920 -77.2010 109° East 463 533 39,000  Level FlightAware
06:43PM 41.6710 -77.1220 110° East 463 533 39,000  Level FlightAware
06:44PM 41.6430 -77.0200 110° East 462 532 39,000  Level FlightAware
06:45PM 41.6160 -76.9210 110° East 462 532 39,000  Level FlightAware
06:45PM 41.5900 -76.8260 110° East 462 532 39,000  Level FlightAware
06:46PM 41.5620 -76.7210 110° East 463 533 39,000  Level FlightAware
06:46PM 41.5350 -76.6230 110° East 464 534 39,000  Level FlightAware
06:47PM 41.5130 -76.5440 110° East 464 534 39,000 -120 Level FlightAware
06:48PM 41.4850 -76.4430 110° East 463 533 38,900 -780 Descending FlightAware
06:48PM 41.4590 -76.3480 110° East 462 532 38,100 -1,620 Descending FlightAware
06:49PM 41.4350 -76.2620 110° East 457 526 37,100 -2,340 Descending FlightAware
06:49PM 41.3990 -76.1340 111° Southeast 458 527 35,000 -2,760 Descending FlightAware
06:50PM 41.3750 -76.0510 111° Southeast 461 531 33,500 -2,880 Descending FlightAware
06:51PM 41.3470 -75.9520 111° Southeast 465 535 31,700 -2,880 Descending FlightAware
06:51PM 41.3210 -75.8580 110° East 465 535 30,100 -2,580 Descending FlightAware
06:52PM 41.2940 -75.7630 111° Southeast 457 526 28,700 -2,280 Descending FlightAware
06:52PM 41.2650 -75.6670 112° Southeast 449 517 27,300 -2,340 Descending FlightAware
06:53PM 41.2370 -75.5830 114° Southeast 442 509 26,000 -2,280 Descending FlightAware
06:54PM 41.2030 -75.4810 114° Southeast 432 497 24,500 -2,220 Descending FlightAware
06:54PM 41.1770 -75.4040 114° Southeast 425 489 23,300 -1,440 Descending FlightAware
06:55PM 41.1510 -75.3250 114° Southeast 430 495 23,000 -300 Descending FlightAware
06:55PM 41.1220 -75.2390 114° Southeast 433 498 23,000  Level FlightAware
06:56PM 41.0920 -75.1510 114° Southeast 426 490 23,000  Level FlightAware
06:57PM 41.0640 -75.0680 114° Southeast 395 455 23,000  Level FlightAware
06:57PM 41.0360 -74.9850 114° Southeast 368 423 23,000 -120 Level FlightAware
06:58PM 41.0050 -74.8950 115° Southeast 365 420 22,900 -540 Descending FlightAware
06:58PM 40.9920 -74.8360 106° East 358 412 22,400 -1,200 Descending FlightAware
06:59PM 40.9840 -74.7660 99° East 359 413 21,700 -1,320 Descending FlightAware
07:00PM 40.9760 -74.6850 97° East 349 402 20,900 -1,320 Descending FlightAware
07:00PM 40.9673 -74.6040 98° East 340 391 20,100 -780 Descending FlightAware ADS-B
07:01PM 40.9600 -74.5410 99° East 335 386 20,000 -120 Descending FlightAware
07:01PM 40.9540 -74.4800 97° East 332 382 20,000  Level FlightAware
07:02PM 40.9450 -74.4030 99° East 324 373 20,000  Level FlightAware
07:03PM 40.9370 -74.3350 99° East 314 361 20,000  Level FlightAware
07:03PM 40.9290 -74.2640 98° East 311 358 20,000  Level FlightAware
07:04PM 40.9230 -74.2050 98° East 313 360 20,000  Level FlightAware
07:04PM 40.9140 -74.1360 100° East 317 365 20,000  Level FlightAware
07:05PM 40.9010 -74.1100 123° Southeast 321 369 20,000  Level FlightAware
07:05PM 40.8890 -74.0980 143° Southeast 325 374 20,000  Level FlightAware
07:05PM 40.8610 -74.0891 166° South 330 380 20,000  Level FlightAware ADS-B
07:05PM 40.8533 -74.0903 187° South 328 377 20,000  Level FlightAware ADS-B
07:05PM 40.8255 -74.1102 208° Southwest 328 377 20,000  Level FlightAware ADS-B
07:06PM 40.8166 -74.1267 235° Southwest 326 375 20,000  Level FlightAware ADS-B (KSNC)
07:06PM 40.8126 -74.1409 249° West 322 371 20,000  Level FlightAware ADS-B (KSNC)
07:06PM 40.8290 -74.2170 286° West 310 357 20,000  Level FlightAware
07:07PM 40.8481 -74.2578 302° West 311 358 20,000  Level FlightAware ADS-B
07:08PM 40.8820 -74.3320 301° West 310 357 20,000  Level FlightAware
07:08PM 40.9090 -74.3910 301° West 310 357 20,000  Level FlightAware
07:08PM 40.9200 -74.4090 309° West 304 350 20,000  Level FlightAware
07:09PM 40.9290 -74.4180 323° Northwest 303 349 20,000  Level FlightAware
07:09PM 40.9380 -74.4240 333° Northwest 300 345 20,000  Level FlightAware
07:09PM 40.9550 -74.4290 347° North 299 344 20,000  Level FlightAware
07:09PM 40.9800 -74.4210 14° North 299 344 20,000  Level FlightAware
07:10PM 40.9990 -74.4010 38° Northeast 301 346 20,000  Level FlightAware
07:10PM 41.0050 -74.3860 62° Northeast 304 350 20,000  Level FlightAware
07:10PM 41.0090 -74.3670 74° East 307 353 20,000  Level FlightAware
07:10PM 41.0010 -74.3200 103° East 318 366 20,000  Level FlightAware
07:11PM 40.9730 -74.2590 121° Southeast 322 371 20,000  Level FlightAware
07:12PM 40.9430 -74.1960 122° Southeast 321 369 20,000  Level FlightAware
07:12PM 40.9190 -74.1440 121° Southeast 322 371 20,000  Level FlightAware
07:12PM 40.9010 -74.1160 130° Southeast 326 375 20,000  Level FlightAware
07:12PM 40.8930 -74.1090 147° Southeast 326 375 20,000  Level FlightAware
07:13PM 40.8698 -74.1003 164° South 329 379 20,000  Level FlightAware ADS-B
07:13PM 40.8556 -74.1015 184° South 330 380 20,000  Level FlightAware ADS-B
07:13PM 40.8406 -74.1085 199° South 330 380 20,000  Level FlightAware ADS-B
07:13PM 40.8354 -74.1125 210° Southwest 329 379 20,000  Level FlightAware ADS-B
07:13PM 40.8146 -74.1471 232° Southwest 321 369 20,000  Level FlightAware ADS-B (KSNC)
07:14PM 40.8183 -74.2089 275° West 327 376 20,000  Level FlightAware ADS-B
07:15PM 40.8500 -74.2800 301° West 309 356 20,000  Level FlightAware
07:15PM 40.8750 -74.3340 301° West 309 356 20,000  Level FlightAware
07:16PM 40.9040 -74.3950 302° West 310 357 20,000  Level FlightAware
07:16PM 40.9160 -74.4140 310° West 306 352 20,000 -240 Level FlightAware
07:16PM 40.9340 -74.4290 328° Northwest 300 345 19,900 -720 Descending FlightAware
07:17PM 40.9480 -74.4340 345° North 296 341 19,700 -1,260 Descending FlightAware
07:17PM 40.9850 -74.4210 15° North 289 333 19,100 -1,140 Descending FlightAware
07:17PM 40.9930 -74.4100 46° Northeast 290 334 19,000 -300 Descending FlightAware
07:17PM 41.0010 -74.3940 56° Northeast 297 342 19,000  Level FlightAware
07:18PM 41.0060 -74.3790 66° East 301 346 19,000  Level FlightAware
07:18PM 41.0070 -74.3640 85° East 307 353 19,000  Level FlightAware
07:18PM 41.0010 -74.3290 103° East 316 364 19,000  Level FlightAware
07:18PM 40.9940 -74.3110 117° Southeast 322 371 19,000  Level FlightAware
07:19PM 40.9630 -74.2440 121° Southeast 337 388 19,000  Level FlightAware
07:19PM 40.9340 -74.1790 121° Southeast 340 391 19,000  Level FlightAware
07:20PM 40.9070 -74.1180 120° Southeast 340 391 19,000 -120 Level FlightAware
07:21PM 40.8739 -74.0515 123° Southeast 341 392 18,900 -300 Descending FlightAware ADS-B
07:21PM 40.9727 -74.2640 302° West 339 390 18,800 -1,500 Descending FlightAware ADS-B (KSNC)
07:21PM 40.8433 -73.9900 122° Southeast 336 387 18,000 -1,620 Descending FlightAware ADS-B
07:21PM 40.8316 -73.9661 123° Southeast 334 384 17,600 -1,740 Descending FlightAware ADS-B (KSNC)
07:22PM 40.7934 -73.8884 123° Southeast 322 371 16,300 -1,740 Descending FlightAware ADS-B (KSNC)
07:23PM 40.7730 -73.8360 117° Southeast 312 359 15,400 -1,860 Descending FlightAware
07:23PM 40.7704 -73.8192 102° East 310 357 15,000 -2,160 Descending FlightAware ADS-B (KSNC)
07:23PM 40.7665 -73.7827 98° East 309 356 14,400 -2,040 Descending FlightAware ADS-B
07:23PM 40.7636 -73.7528 97° East 307 353 13,900 -1,680 Descending FlightAware ADS-B (KSNC)
07:24PM 40.7584 -73.6960 97° East 305 351 13,100 -1,140 Descending FlightAware ADS-B (KSNC)
07:25PM 40.7529 -73.6357 97° East 292 336 12,700 -360 Descending FlightAware ADS-B (KSNC)
07:25PM 40.7468 -73.5625 96° East 256 295 12,700  Level FlightAware ADS-B (KSNC)
07:26PM 40.7428 -73.5331 100° East 253 291 12,700  Level FlightAware ADS-B (KSNC)
07:26PM 40.7120 -73.5026 143° Southeast 255 293 12,700 -840 Level FlightAware ADS-B (KSNC)
07:27PM 40.6465 -73.4836 168° South 250 288 11,500 -1,320 Descending FlightAware ADS-B (KSNC)
07:28PM 40.6040 -73.4730 169° South 245 282 10,600 -1,380 Descending FlightAware
07:28PM 40.5954 -73.4749 190° South 246 283 10,400 -1,500 Descending FlightAware ADS-B (KSNC)
07:28PM 40.5727 -73.4883 204° Southwest 247 284 9,900 -1,500 Descending FlightAware ADS-B (KSNC)
07:29PM 40.5410 -73.5110 209° Southwest 247 284 9,100 -1,440 Descending FlightAware
07:29PM 40.5270 -73.5220 211° Southwest 246 283 8,800 -1,380 Descending FlightAware
07:29PM 40.5020 -73.5400 209° Southwest 246 283 8,200 -1,500 Descending FlightAware
07:30PM 40.4820 -73.5550 210° Southwest 242 278 7,700 -1,200 Descending FlightAware
07:30PM 40.4680 -73.5650 209° Southwest 240 276 7,500 -1,080 Descending FlightAware
07:30PM 40.4490 -73.5800 211° Southwest 239 275 7,100 -1,200 Descending FlightAware
07:31PM 40.4360 -73.5900 210° Southwest 238 274 6,800 -1,200 Descending FlightAware
07:31PM 40.4160 -73.6050 210° Southwest 233 268 6,400 -1,380 Descending FlightAware
07:31PM 40.4020 -73.6160 211° Southwest 230 265 6,000 -1,440 Descending FlightAware
07:32PM 40.3770 -73.6360 211° Southwest 225 259 5,400 -1,320 Descending FlightAware
07:32PM 40.3590 -73.6500 211° Southwest 228 262 5,000 -1,260 Descending FlightAware
07:32PM 40.3540 -73.6590 234° Southwest 234 269 4,800 -1,620 Descending FlightAware
07:32PM 40.3500 -73.6680 240° Southwest 235 270 4,600 -1,800 Descending FlightAware
07:33PM 40.3420 -73.6950 249° West 237 273 4,000 -1,560 Descending FlightAware
07:33PM 40.3320 -73.7180 240° Southwest 241 277 3,600 -1,260 Descending FlightAware
07:33PM 40.3180 -73.7510 241° Southwest 247 284 3,100 -1,260 Descending FlightAware
07:34PM 40.3080 -73.7770 243° Southwest 250 288 2,700 -660 Descending FlightAware
07:34PM 40.2990 -73.8010 244° Southwest 249 287 2,700  Level FlightAware
07:34PM 40.2890 -73.8270 243° Southwest 229 264 2,700  Level FlightAware
07:34PM 40.2840 -73.8410 245° Southwest 232 267 2,700  Level FlightAware
07:35PM 40.2830 -73.8500 262° West 233 268 2,700  Level FlightAware
07:35PM 40.2860 -73.8810 277° West 235 270 2,700  Level FlightAware
07:35PM 40.2890 -73.9100 278° West 235 270 2,700  Level FlightAware
07:36PM 40.2920 -73.9440 277° West 235 270 2,700  Level FlightAware
07:36PM 40.2970 -73.9710 284° West 232 267 2,700  Level FlightAware
07:36PM 40.3020 -73.9850 295° West 231 266 2,700  Level FlightAware
07:37PM 40.3120 -74.0180 292° West 226 260 2,700  Level FlightAware
07:37PM 40.3200 -74.0420 294° West 209 241 2,700  Level FlightAware
07:37PM 40.3240 -74.0550 292° West 205 236 2,700  Level FlightAware
07:37PM 40.3280 -74.0650 298° West 201 231 2,700  Level FlightAware
07:37PM 40.3320 -74.0700 316° Northwest 195 224 2,700  Level FlightAware
07:38PM 40.3390 -74.0740 336° Northwest 180 207 2,700  Level FlightAware
07:38PM 40.3460 -74.0760 348° North 175 201 2,700  Level FlightAware
07:38PM 40.3630 -74.0760 360° North 171 197 2,700  Level FlightAware
07:38PM 40.3750 -74.0720 14° North 148 170 2,700  Level FlightAware
07:39PM 40.3870 -74.0650 24° Northeast 143 165 2,700  Level FlightAware
07:39PM 40.3980 -74.0590 23° Northeast 141 162 2,700  Level FlightAware
07:39PM 40.4140 -74.0480 28° Northeast 141 162 2,700  Level FlightAware
07:40PM 40.4260 -74.0400 27° Northeast 144 166 2,700  Level FlightAware
07:40PM 40.4370 -74.0320 29° Northeast 144 166 2,700  Level FlightAware
07:41PM 40.4510 -74.0210 31° Northeast 142 163 2,700  Level FlightAware
07:41PM 40.4620 -74.0130 29° Northeast 143 165 2,700  Level FlightAware
07:41PM 40.4730 -74.0040 32° Northeast 144 166 2,700  Level FlightAware
07:41PM 40.4830 -73.9970 28° Northeast 147 169 2,700  Level FlightAware
07:42PM 40.4940 -73.9890 29° Northeast 150 173 2,700  Level FlightAware
07:42PM 40.5040 -73.9810 31° Northeast 149 171 2,700  Level FlightAware
07:42PM 40.5150 -73.9730 29° Northeast 150 173 2,700  Level FlightAware
07:43PM 40.5250 -73.9660 28° Northeast 151 174 2,700 -360 Level FlightAware
07:43PM 40.5380 -73.9550 33° Northeast 144 166 2,500 -600 Descending FlightAware
07:43PM 40.5435 -73.9508 30° Northeast 142 163 2,400 -540 Descending FlightAware ADS-B
07:43PM 40.5520 -73.9437 32° Northeast 140 161 2,300 -600 Descending FlightAware ADS-B
07:44PM 40.5730 -73.9270 31° Northeast 143 165 1,900 -660 Descending FlightAware
07:44PM 40.5820 -73.9190 34° Northeast 134 154 1,700 -480 Descending FlightAware
07:45PM 40.5930 -73.9100 32° Northeast 125 144 1,600 -540 Descending FlightAware
07:45PM 40.6050 -73.9000 32° Northeast 124 143 1,300 -600 Descending FlightAware
07:45PM 40.6150 -73.8920 31° Northeast 120 138 1,200 -420 Descending FlightAware
07:46PM 40.6200 -73.8890 24° Northeast 119 137 1,100 -720 Descending FlightAware
07:46PM 40.6320 -73.8790 32° Northeast 126 145 800 -660 Descending FlightAware
07:46PM 40.6380 -73.8740 32° Northeast 123 142 700 -420 Descending FlightAware
07:47PM 40.6470 -73.8660 34° Northeast 120 138 600 -360 Descending FlightAware
07:47PM 40.6540 -73.8590 37° Northeast 118 136 500 -300 Descending FlightAware
07:47PM 40.6570 -73.8550 45° Northeast 119 137 500  Level FlightAware
07:47PM 40.6610 -73.8480 53° Northeast 118 136 500  Level FlightAware
07:47PM 40.6640 -73.8440 45° Northeast 116 133 500  Level FlightAware
07:47PM 40.6650 -73.8380 78° East 119 137 500  Level FlightAware
07:47PM 40.6650 -73.8360 90° East 118 136 500 -480 Level FlightAware
07:48PM 40.6660 -73.8190 86° East 126 145 300 -540 Descending FlightAware
07:48PM 40.6630 -73.8020 103° East 124 143 100 -540 Descending FlightAware
07:49PM 40.6570 -73.7880 119° Southeast 130 150 -300 Descending FlightAware
07:49PM 40.6500 -73.7730 122° Southeast 70 81  Level FlightAware